createdAt,value
2018-01-25T00:00:02.127Z,9.00
2018-01-25T00:02:29.711Z,9.10
2018-01-25T00:04:57.314Z,9.10
2018-01-25T00:07:24.930Z,9.30
2018-01-25T00:09:52.585Z,9.40
2018-01-25T00:12:20.215Z,9.20
2018-01-25T00:14:47.867Z,9.00
2018-01-25T00:17:15.481Z,9.00
2018-01-25T00:19:43.107Z,9.00
2018-01-25T00:22:10.771Z,9.30
2018-01-25T00:24:38.376Z,9.40
2018-01-25T00:27:06.734Z,9.30
2018-01-25T00:29:34.351Z,9.30
2018-01-25T00:32:01.983Z,9.50
2018-01-25T00:34:30.326Z,9.50
2018-01-25T00:36:57.932Z,9.50
2018-01-25T00:39:25.538Z,9.30
2018-01-25T00:41:53.156Z,9.20
2018-01-25T00:44:20.755Z,9.00
2018-01-25T00:46:48.335Z,8.80
2018-01-25T00:49:15.982Z,8.70
2018-01-25T00:51:43.582Z,8.60
2018-01-25T00:54:11.974Z,8.50
2018-01-25T00:56:39.593Z,8.50
2018-01-25T00:59:07.175Z,8.50
2018-01-25T01:01:34.791Z,8.40
2018-01-25T01:04:02.467Z,8.40
2018-01-25T01:06:30.088Z,8.50
2018-01-25T01:08:57.679Z,8.60
2018-01-25T01:11:25.282Z,8.60
2018-01-25T01:13:52.896Z,8.70
2018-01-25T01:16:20.545Z,8.70
2018-01-25T01:18:48.158Z,8.90
2018-01-25T01:21:16.562Z,9.00
2018-01-25T01:23:44.140Z,9.00
2018-01-25T01:26:11.737Z,9.10
2018-01-25T01:28:39.344Z,9.10
2018-01-25T01:31:06.964Z,9.30
2018-01-25T01:33:34.569Z,9.30
2018-01-25T01:36:02.188Z,9.40
2018-01-25T01:38:29.778Z,9.30
2018-01-25T01:40:57.325Z,9.20
2018-01-25T01:43:24.950Z,9.30
2018-01-25T01:45:52.538Z,9.30
2018-01-25T01:48:20.146Z,9.30
2018-01-25T01:50:47.801Z,9.30
2018-01-25T01:53:15.378Z,9.10
2018-01-25T01:55:42.952Z,9.10
2018-01-25T01:58:10.626Z,9.20
2018-01-25T02:00:38.216Z,9.20
2018-01-25T02:03:05.802Z,9.10
2018-01-25T02:05:33.374Z,9.10
2018-01-25T02:08:00.966Z,9.30
2018-01-25T02:10:28.624Z,9.30
2018-01-25T02:12:56.235Z,9.50
2018-01-25T02:15:23.876Z,9.40
2018-01-25T02:17:52.294Z,9.50
2018-01-25T02:20:19.847Z,9.40
2018-01-25T02:22:47.463Z,9.30
2018-01-25T02:25:15.059Z,9.20
2018-01-25T02:27:42.657Z,9.10
2018-01-25T02:30:10.283Z,9.10
2018-01-25T02:32:37.893Z,9.10
2018-01-25T02:35:05.540Z,9.10
2018-01-25T02:37:33.175Z,9.00
2018-01-25T02:40:00.797Z,8.90
2018-01-25T02:42:28.418Z,8.90
2018-01-25T02:44:56.013Z,9.00
2018-01-25T02:47:23.579Z,9.20
2018-01-25T02:49:51.203Z,9.20
2018-01-25T02:52:18.817Z,9.20
2018-01-25T02:54:46.436Z,9.20
2018-01-25T02:57:14.059Z,9.20
2018-01-25T02:59:41.675Z,9.20
2018-01-25T03:02:09.283Z,9.30
2018-01-25T03:04:36.894Z,9.30
2018-01-25T03:07:05.305Z,9.40
2018-01-25T03:09:32.898Z,9.40
2018-01-25T03:12:00.500Z,9.60
2018-01-25T03:14:28.167Z,9.50
2018-01-25T03:16:56.559Z,9.70
2018-01-25T03:19:24.203Z,9.70
2018-01-25T03:21:51.809Z,9.70
2018-01-25T03:24:19.419Z,9.70
2018-01-25T03:26:47.779Z,9.60
2018-01-25T03:29:15.395Z,9.60
2018-01-25T03:31:42.991Z,9.70
2018-01-25T03:34:10.611Z,9.80
2018-01-25T03:36:38.200Z,9.80
2018-01-25T03:39:05.815Z,9.80
2018-01-25T03:41:34.195Z,9.60
2018-01-25T03:44:01.822Z,9.60
2018-01-25T03:46:30.231Z,9.70
2018-01-25T03:48:57.852Z,9.70
2018-01-25T03:51:25.493Z,9.60
2018-01-25T03:53:53.144Z,9.50
2018-01-25T03:56:20.730Z,9.70
2018-01-25T03:58:48.364Z,9.70
2018-01-25T04:01:15.958Z,9.70
2018-01-25T04:03:43.571Z,9.50
2018-01-25T04:06:11.153Z,9.50
2018-01-25T04:08:38.818Z,9.40
2018-01-25T04:11:06.442Z,9.40
2018-01-25T04:13:34.015Z,9.20
2018-01-25T04:16:01.622Z,9.20
2018-01-25T04:18:29.264Z,9.10
2018-01-25T04:20:56.916Z,9.20
2018-01-25T04:23:24.562Z,9.30
2018-01-25T04:25:52.162Z,9.30
2018-01-25T04:28:20.074Z,9.30
2018-01-25T04:30:47.716Z,9.40
2018-01-25T04:33:15.287Z,9.50
2018-01-25T04:35:42.888Z,9.50
2018-01-25T04:38:10.512Z,9.50
2018-01-25T04:40:38.119Z,9.50
2018-01-25T04:43:05.747Z,9.50
2018-01-25T04:45:33.392Z,9.50
2018-01-25T04:48:00.979Z,9.50
2018-01-25T04:50:28.555Z,9.30
2018-01-25T04:52:56.166Z,9.20
2018-01-25T04:55:23.726Z,9.00
2018-01-25T04:57:51.322Z,8.90
2018-01-25T05:00:18.898Z,8.80
2018-01-25T05:02:46.559Z,8.70
2018-01-25T05:05:14.234Z,8.70
2018-01-25T05:07:41.830Z,8.60
2018-01-25T05:10:09.450Z,8.50
2018-01-25T05:12:37.066Z,8.30
2018-01-25T05:15:04.675Z,8.20
2018-01-25T05:17:34.740Z,8.10
2018-01-25T05:20:02.310Z,8.00
2018-01-25T05:22:29.882Z,8.00
2018-01-25T05:24:57.467Z,7.90
2018-01-25T05:27:25.051Z,7.80
2018-01-25T05:29:53.392Z,7.60
2018-01-25T05:32:20.970Z,7.60
2018-01-25T05:34:48.557Z,7.60
2018-01-25T05:37:16.929Z,7.50
2018-01-25T05:39:45.326Z,7.40
2018-01-25T05:42:12.900Z,7.40
2018-01-25T05:44:40.526Z,7.40
2018-01-25T05:47:08.900Z,7.50
2018-01-25T05:49:36.491Z,7.50
2018-01-25T05:52:04.116Z,7.60
2018-01-25T05:54:31.710Z,7.60
2018-01-25T05:56:59.315Z,7.60
2018-01-25T05:59:26.950Z,7.70
2018-01-25T06:01:54.565Z,7.80
2018-01-25T06:04:22.162Z,8.00
2018-01-25T06:06:49.723Z,8.00
2018-01-25T06:09:17.334Z,8.00
2018-01-25T06:11:44.886Z,8.30
2018-01-25T06:14:12.514Z,8.40
2018-01-25T06:16:40.081Z,8.50
2018-01-25T06:19:07.692Z,8.70
2018-01-25T06:21:36.057Z,9.00
2018-01-25T06:24:03.645Z,8.90
2018-01-25T06:26:31.282Z,9.10
2018-01-25T06:28:58.855Z,9.20
2018-01-25T06:31:27.235Z,9.30
2018-01-25T06:33:55.613Z,9.30
2018-01-25T06:36:23.989Z,9.30
2018-01-25T06:38:52.367Z,9.30
2018-01-25T06:41:20.710Z,9.30
2018-01-25T06:43:48.314Z,9.30
2018-01-25T06:46:16.741Z,9.40
2018-01-25T06:48:44.326Z,9.40
2018-01-25T06:51:11.915Z,9.20
2018-01-25T06:53:39.510Z,9.00
2018-01-25T06:56:07.093Z,9.20
2018-01-25T06:58:34.687Z,9.10
2018-01-25T07:01:03.026Z,8.90
2018-01-25T07:03:30.632Z,8.90
2018-01-25T07:05:59.018Z,8.90
2018-01-25T07:08:27.352Z,9.00
2018-01-25T07:10:54.955Z,9.00
2018-01-25T07:13:23.283Z,9.60
2018-01-25T07:15:50.846Z,9.50
2018-01-25T07:18:18.449Z,9.60
2018-01-25T07:20:46.030Z,9.80
2018-01-25T07:23:13.630Z,9.90
2018-01-25T07:25:41.248Z,10.00
2018-01-25T07:28:08.822Z,10.20
2018-01-25T07:30:36.437Z,10.20
2018-01-25T07:33:04.792Z,10.30
2018-01-25T07:35:32.394Z,10.30
2018-01-25T07:38:00.019Z,10.30
2018-01-25T07:40:27.606Z,10.30
2018-01-25T07:42:55.924Z,10.30
2018-01-25T07:45:23.520Z,10.30
2018-01-25T07:47:51.134Z,10.40
2018-01-25T07:50:18.749Z,10.30
2018-01-25T07:52:46.391Z,10.20
2018-01-25T07:55:13.990Z,10.10
2018-01-25T07:57:47.236Z,10.00
2018-01-25T08:00:14.813Z,10.00
2018-01-25T08:02:42.417Z,10.00
2018-01-25T08:05:09.970Z,10.10
2018-01-25T08:07:37.533Z,10.10
2018-01-25T08:10:05.098Z,10.20
2018-01-25T08:12:32.706Z,10.50
2018-01-25T08:15:00.292Z,10.60
2018-01-25T08:17:28.624Z,10.80
2018-01-25T08:19:56.256Z,10.70
2018-01-25T08:22:24.626Z,10.80
2018-01-25T08:24:52.210Z,10.70
2018-01-25T08:27:19.826Z,10.90
2018-01-25T08:29:48.180Z,11.10
2018-01-25T08:32:15.786Z,11.00
2018-01-25T08:34:43.359Z,11.10
2018-01-25T08:37:10.956Z,11.20
2018-01-25T08:39:38.559Z,11.20
2018-01-25T08:42:06.171Z,11.20
2018-01-25T08:44:33.766Z,11.10
2018-01-25T08:47:02.157Z,11.10
2018-01-25T08:49:29.737Z,11.00
2018-01-25T08:51:57.370Z,10.90
2018-01-25T08:54:25.694Z,10.80
2018-01-25T08:56:53.254Z,10.80
2018-01-25T08:59:20.808Z,10.70
2018-01-25T09:01:48.446Z,10.70
2018-01-25T09:04:16.036Z,10.70
2018-01-25T09:06:43.644Z,10.80
2018-01-25T09:09:12.039Z,10.90
2018-01-25T09:11:39.607Z,10.90
2018-01-25T09:14:07.223Z,11.00
2018-01-25T09:16:34.814Z,10.90
2018-01-25T09:19:02.442Z,11.00
2018-01-25T09:21:30.039Z,11.10
2018-01-25T09:23:57.775Z,11.20
2018-01-25T09:26:26.114Z,11.30
2018-01-25T09:28:53.726Z,11.30
2018-01-25T09:31:22.070Z,11.30
2018-01-25T09:33:49.689Z,11.30
2018-01-25T09:36:17.333Z,11.40
2018-01-25T09:38:44.906Z,11.60
2018-01-25T09:41:12.526Z,11.60
2018-01-25T09:43:40.102Z,11.80
2018-01-25T09:46:08.427Z,11.90
2018-01-25T09:48:36.003Z,11.90
2018-01-25T09:51:03.652Z,12.30
2018-01-25T09:53:31.245Z,12.50
2018-01-25T09:55:58.833Z,12.60
2018-01-25T09:58:26.455Z,12.90
2018-01-25T10:00:54.118Z,13.30
2018-01-25T10:03:21.706Z,14.10
2018-01-25T10:05:49.304Z,14.80
2018-01-25T10:08:16.896Z,14.90
2018-01-25T10:10:44.513Z,14.40
2018-01-25T10:13:12.136Z,15.20
2018-01-25T10:15:39.734Z,14.60
2018-01-25T10:18:07.296Z,15.00
2018-01-25T10:20:34.910Z,15.00
2018-01-25T10:23:02.473Z,14.60
2018-01-25T10:25:30.036Z,14.30
2018-01-25T10:27:58.437Z,14.10
2018-01-25T10:30:26.036Z,14.10
2018-01-25T10:32:53.655Z,14.60
2018-01-25T10:35:21.986Z,15.50
2018-01-25T10:37:49.623Z,15.40
2018-01-25T10:40:17.195Z,15.70
2018-01-25T10:42:44.775Z,15.90
2018-01-25T10:45:12.380Z,15.70
2018-01-25T10:47:39.933Z,15.90
2018-01-25T10:50:07.525Z,16.00
2018-01-25T10:52:35.145Z,15.20
2018-01-25T10:55:03.524Z,15.50
2018-01-25T10:57:31.124Z,15.50
2018-01-25T10:59:58.712Z,15.20
2018-01-25T11:02:26.345Z,14.40
2018-01-25T11:04:53.939Z,14.20
2018-01-25T11:07:21.533Z,14.00
2018-01-25T11:09:49.114Z,14.00
2018-01-25T11:12:16.733Z,13.90
2018-01-25T11:14:45.090Z,14.00
2018-01-25T11:17:12.684Z,13.90
2018-01-25T11:19:40.266Z,13.70
2018-01-25T11:22:07.894Z,13.60
2018-01-25T11:24:36.230Z,13.60
2018-01-25T11:27:03.843Z,13.60
2018-01-25T11:29:31.490Z,13.40
2018-01-25T11:31:59.799Z,13.40
2018-01-25T11:34:28.122Z,13.30
2018-01-25T11:36:55.705Z,13.30
2018-01-25T11:39:24.095Z,13.20
2018-01-25T11:41:52.422Z,13.20
2018-01-25T11:44:20.001Z,13.20
2018-01-25T11:46:47.634Z,13.10
2018-01-25T11:49:15.199Z,13.10
2018-01-25T11:51:42.779Z,12.90
2018-01-25T11:54:10.367Z,12.90
2018-01-25T11:56:38.774Z,13.00
2018-01-25T11:59:06.400Z,13.00
2018-01-25T12:01:34.789Z,13.00
2018-01-25T12:04:03.171Z,13.10
2018-01-25T12:06:30.797Z,13.00
2018-01-25T12:08:58.437Z,13.40
2018-01-25T12:11:26.085Z,13.90
2018-01-25T12:13:53.682Z,13.60
2018-01-25T12:16:21.304Z,13.50
2018-01-25T12:18:48.854Z,13.20
2018-01-25T12:21:16.428Z,13.20
2018-01-25T12:23:44.032Z,13.20
2018-01-25T12:26:12.340Z,13.00
2018-01-25T12:28:39.951Z,13.00
2018-01-25T12:31:07.555Z,13.00
2018-01-25T12:33:35.194Z,12.90
2018-01-25T12:36:02.831Z,12.70
2018-01-25T12:38:30.451Z,12.70
2018-01-25T12:40:58.066Z,12.70
2018-01-25T12:43:25.643Z,12.60
2018-01-25T12:45:53.990Z,12.90
2018-01-25T12:48:21.563Z,12.90
2018-01-25T12:50:49.207Z,12.80
2018-01-25T12:53:16.832Z,12.90
2018-01-25T12:55:44.422Z,12.70
2018-01-25T12:58:12.046Z,12.80
2018-01-25T13:00:39.645Z,12.90
2018-01-25T13:03:07.222Z,12.80
2018-01-25T13:05:34.870Z,12.80
2018-01-25T13:08:02.414Z,12.80
2018-01-25T13:10:30.068Z,12.90
2018-01-25T13:12:57.873Z,13.00
2018-01-25T13:15:25.486Z,12.90
2018-01-25T13:17:53.042Z,12.90
2018-01-25T13:20:21.448Z,13.10
2018-01-25T13:22:49.101Z,13.10
2018-01-25T13:25:16.718Z,13.10
2018-01-25T13:27:44.358Z,13.40
2018-01-25T13:30:12.798Z,13.80
2018-01-25T13:32:40.415Z,13.80
2018-01-25T13:35:08.812Z,13.70
2018-01-25T13:37:36.366Z,13.70
2018-01-25T13:40:03.988Z,13.60
2018-01-25T13:42:31.586Z,13.70
2018-01-25T13:44:59.194Z,13.70
2018-01-25T13:47:26.773Z,13.60
2018-01-25T13:49:54.376Z,13.60
2018-01-25T13:52:27.557Z,13.60
2018-01-25T13:54:55.171Z,13.50
2018-01-25T13:57:22.731Z,13.60
2018-01-25T13:59:50.361Z,13.40
2018-01-25T14:02:17.928Z,13.30
2018-01-25T14:04:45.539Z,13.40
2018-01-25T14:07:13.132Z,13.60
2018-01-25T14:09:40.786Z,13.80
2018-01-25T14:12:08.386Z,14.00
2018-01-25T14:14:35.994Z,13.90
2018-01-25T14:17:04.418Z,13.40
2018-01-25T14:19:32.009Z,13.40
2018-01-25T14:21:59.579Z,13.30
2018-01-25T14:24:27.956Z,13.10
2018-01-25T14:26:56.332Z,13.10
2018-01-25T14:29:23.905Z,13.10
2018-01-25T14:31:52.296Z,13.20
2018-01-25T14:34:19.891Z,13.20
2018-01-25T14:36:47.492Z,13.10
2018-01-25T14:39:15.866Z,13.00
2018-01-25T14:41:43.477Z,13.00
2018-01-25T14:44:11.082Z,12.90
2018-01-25T14:46:38.669Z,12.80
2018-01-25T14:49:06.295Z,12.80
2018-01-25T14:51:33.881Z,12.70
2018-01-25T14:54:02.284Z,12.90
2018-01-25T14:56:29.874Z,12.90
2018-01-25T14:58:57.512Z,12.90
2018-01-25T15:01:25.080Z,13.00
2018-01-25T15:03:53.420Z,13.10
2018-01-25T15:06:21.772Z,13.30
2018-01-25T15:08:50.202Z,13.80
2018-01-25T15:11:17.840Z,13.80
2018-01-25T15:13:46.210Z,14.60
2018-01-25T15:16:14.650Z,14.40
2018-01-25T15:18:42.198Z,14.40
2018-01-25T15:21:09.864Z,14.30
2018-01-25T15:23:37.438Z,13.90
2018-01-25T15:27:44.711Z,13.40
2018-01-25T15:30:12.343Z,13.20
2018-01-25T15:32:39.933Z,12.50
2018-01-25T15:35:08.334Z,12.00
2018-01-25T15:37:35.967Z,11.70
2018-01-25T15:40:03.608Z,11.40
2018-01-25T15:42:31.221Z,11.10
2018-01-25T15:44:58.861Z,10.80
2018-01-25T15:47:26.500Z,10.60
2018-01-25T15:49:55.035Z,10.50
2018-01-25T15:52:23.636Z,10.20
2018-01-25T15:54:51.956Z,9.90
2018-01-25T15:57:19.584Z,9.90
2018-01-25T15:59:47.155Z,9.90
2018-01-25T16:02:14.748Z,9.80
2018-01-25T16:04:42.402Z,9.70
2018-01-25T16:07:10.048Z,9.60
2018-01-25T16:09:37.667Z,9.50
2018-01-25T16:12:32.265Z,9.20
2018-01-25T16:14:59.923Z,9.20
2018-01-25T16:17:28.298Z,9.20
2018-01-25T16:19:57.961Z,9.20
2018-01-25T16:22:25.582Z,9.20
2018-01-25T16:24:53.962Z,9.20
2018-01-25T16:27:21.554Z,9.10
2018-01-25T16:29:55.819Z,9.10
2018-01-25T16:32:23.442Z,9.20
2018-01-25T16:34:51.030Z,9.20
2018-01-25T16:37:18.639Z,9.20
2018-01-25T16:39:46.240Z,9.30
2018-01-25T16:42:13.872Z,9.30
2018-01-25T16:44:41.475Z,9.30
2018-01-25T16:47:22.012Z,9.20
2018-01-25T16:49:49.568Z,9.20
2018-01-25T16:52:17.164Z,9.10
2018-01-25T16:54:44.767Z,9.10
2018-01-25T16:57:12.318Z,9.00
2018-01-25T16:59:39.877Z,9.00
2018-01-25T17:02:07.477Z,8.90
2018-01-25T17:04:35.087Z,8.70
2018-01-25T17:07:02.662Z,8.50
2018-01-25T17:09:30.222Z,8.40
2018-01-25T17:11:57.787Z,8.30
2018-01-25T17:14:25.383Z,8.20
2018-01-25T17:16:52.942Z,8.30
2018-01-25T17:19:24.759Z,8.40
2018-01-25T17:21:52.360Z,8.40
2018-01-25T17:24:19.942Z,8.40
2018-01-25T17:26:48.287Z,8.30
2018-01-25T17:29:19.544Z,8.30
2018-01-25T17:31:47.132Z,8.40
2018-01-25T17:37:08.942Z,8.40
2018-01-25T17:39:36.559Z,8.40
2018-01-25T17:42:04.205Z,8.40
2018-01-25T17:44:32.576Z,8.50
2018-01-25T17:47:00.951Z,8.50
2018-01-25T17:49:29.335Z,8.50
2018-01-25T17:51:57.752Z,8.50
2018-01-25T17:54:26.100Z,8.50
2018-01-25T17:57:03.843Z,8.50
2018-01-25T17:59:31.420Z,8.50
2018-01-25T18:01:59.007Z,8.40
2018-01-25T18:04:27.410Z,8.20
2018-01-25T18:06:55.033Z,8.20
2018-01-25T18:09:22.647Z,8.10
2018-01-25T18:11:50.270Z,8.10
2018-01-25T18:14:18.623Z,7.70
2018-01-25T18:16:46.282Z,7.70
2018-01-25T18:19:13.924Z,7.70
2018-01-25T18:21:41.567Z,7.60
2018-01-25T18:24:09.224Z,7.50
2018-01-25T18:26:36.838Z,7.40
2018-01-25T18:29:05.231Z,7.40
2018-01-25T18:31:32.818Z,7.40
2018-01-25T18:34:00.433Z,7.50
2018-01-25T18:36:28.078Z,7.50
2018-01-25T18:38:55.659Z,7.60
2018-01-25T18:41:23.528Z,7.60
2018-01-25T18:43:51.111Z,7.70
2018-01-25T18:46:18.711Z,7.90
2018-01-25T18:48:46.381Z,8.00
2018-01-25T18:51:13.982Z,8.10
2018-01-25T18:53:42.377Z,8.10
2018-01-25T18:56:10.000Z,8.20
2018-01-25T18:58:37.626Z,8.20
2018-01-25T19:01:05.340Z,8.20
2018-01-25T19:03:33.746Z,8.20
2018-01-25T19:06:01.393Z,8.20
2018-01-25T19:08:29.092Z,8.10
2018-01-25T19:10:56.747Z,8.20
2018-01-25T19:13:24.414Z,8.30
2018-01-25T19:15:52.024Z,8.30
2018-01-25T19:18:19.667Z,8.50
2018-01-25T19:20:47.296Z,8.60
2018-01-25T19:23:18.304Z,8.70
2018-01-25T19:25:46.701Z,8.70
2018-01-25T19:28:14.346Z,8.70
2018-01-25T19:30:44.582Z,8.50
2018-01-25T19:33:12.663Z,8.50
2018-01-25T19:35:40.236Z,8.40
2018-01-25T19:38:07.885Z,8.30
2018-01-25T19:40:35.547Z,8.20
2018-01-25T19:43:03.228Z,8.10
2018-01-25T19:45:30.886Z,8.00
2018-01-25T19:47:58.521Z,8.00
2018-01-25T19:50:26.158Z,7.90
2018-01-25T19:52:54.527Z,7.80
2018-01-25T19:55:22.172Z,7.80
2018-01-25T19:57:49.977Z,7.80
2018-01-25T20:00:17.609Z,7.70
2018-01-25T20:02:45.237Z,7.70
2018-01-25T20:05:12.820Z,7.60
2018-01-25T20:07:40.431Z,7.60
2018-01-25T20:10:08.125Z,7.50
2018-01-25T20:12:35.743Z,7.40
2018-01-25T20:15:03.393Z,7.30
2018-01-25T20:17:31.049Z,7.30
2018-01-25T20:19:58.743Z,7.20
2018-01-25T20:22:26.456Z,7.20
2018-01-25T20:24:54.113Z,7.30
2018-01-25T20:27:21.775Z,7.30
2018-01-25T20:29:49.384Z,7.20
2018-01-25T20:32:17.088Z,7.20
2018-01-25T20:34:52.925Z,7.20
2018-01-25T20:37:20.567Z,7.20
2018-01-25T20:39:48.173Z,7.20
2018-01-25T20:42:15.782Z,7.20
2018-01-25T20:44:43.465Z,7.20
2018-01-25T20:47:11.068Z,7.20
2018-01-25T20:49:38.690Z,7.30
2018-01-25T20:52:06.363Z,7.30
2018-01-25T20:54:34.032Z,7.40
2018-01-25T20:57:01.643Z,7.40
2018-01-25T20:59:29.306Z,7.30
2018-01-25T21:01:57.003Z,7.30
2018-01-25T21:04:24.679Z,7.20
2018-01-25T21:06:53.313Z,7.20
2018-01-25T21:09:21.000Z,7.10
2018-01-25T21:11:48.636Z,7.10
2018-01-25T21:14:16.293Z,7.20
2018-01-25T21:16:43.956Z,7.20
2018-01-25T21:19:11.597Z,7.30
2018-01-25T21:21:39.629Z,7.30
2018-01-25T21:24:07.339Z,7.40
2018-01-25T21:26:35.794Z,7.30
2018-01-25T21:29:03.447Z,7.30
2018-01-25T21:31:31.069Z,7.40
2018-01-25T21:33:59.483Z,7.50
2018-01-25T21:36:27.127Z,7.40
2018-01-25T21:38:54.780Z,7.50
2018-01-25T21:41:22.405Z,7.60
2018-01-25T21:43:50.056Z,7.60
2018-01-25T21:46:18.508Z,7.70
2018-01-25T21:48:46.174Z,7.70
2018-01-25T21:51:13.833Z,7.60
2018-01-25T21:53:41.508Z,7.50
2018-01-25T21:56:09.927Z,7.20
2018-01-25T21:58:37.577Z,7.20
2018-01-25T22:01:05.223Z,7.10
2018-01-25T22:03:33.686Z,7.00
2018-01-25T22:06:01.365Z,7.00
2018-01-25T22:08:29.802Z,6.90
2018-01-25T22:10:57.428Z,6.90
2018-01-25T22:13:25.090Z,6.80
2018-01-25T22:15:52.725Z,6.80
2018-01-25T22:18:21.151Z,6.70
2018-01-25T22:20:48.794Z,6.60
2018-01-25T22:23:16.433Z,6.60
2018-01-25T22:25:44.094Z,6.60
2018-01-25T22:28:11.739Z,6.60
2018-01-25T22:30:40.184Z,6.60
2018-01-25T22:33:07.824Z,6.60
2018-01-25T22:35:35.468Z,6.60
2018-01-25T22:38:03.115Z,6.60
2018-01-25T22:40:30.786Z,6.60
2018-01-25T22:42:58.395Z,6.70
2018-01-25T22:45:26.076Z,6.70
2018-01-25T22:47:55.729Z,6.70
2018-01-25T22:50:23.442Z,6.60
2018-01-25T22:52:51.079Z,6.60
2018-01-25T22:55:18.690Z,6.50
2018-01-25T22:57:47.099Z,6.60
2018-01-25T23:00:26.519Z,6.60
2018-01-25T23:02:54.147Z,6.70
2018-01-25T23:05:21.770Z,6.90
2018-01-25T23:07:49.408Z,6.80
2018-01-25T23:10:17.821Z,6.70
2018-01-25T23:12:45.467Z,6.70
2018-01-25T23:15:13.046Z,6.70
2018-01-25T23:17:40.657Z,6.70
2018-01-25T23:20:09.051Z,6.60
2018-01-25T23:22:36.672Z,6.60
2018-01-25T23:25:04.322Z,6.70
2018-01-25T23:27:31.946Z,6.70
2018-01-25T23:29:59.603Z,6.70
2018-01-25T23:32:27.243Z,6.70
2018-01-25T23:34:55.661Z,6.70
2018-01-25T23:37:23.256Z,6.70
2018-01-25T23:39:50.879Z,6.80
2018-01-25T23:42:18.504Z,6.80
2018-01-25T23:44:46.884Z,6.90
2018-01-25T23:47:15.315Z,6.80
2018-01-25T23:49:42.878Z,6.80
2018-01-25T23:52:10.504Z,6.80
2018-01-25T23:54:38.101Z,6.80
2018-01-25T23:57:05.727Z,6.70
2018-01-25T23:59:33.323Z,6.70
